Time;durP1;ratioP1;P1;durP2;ratioP2;P2;SDS_P1;SDS_P2;PMS_P1;PMS_P2;Temp;Humidity;BMP_temperature;BMP_pressure;BME280_temperature;BME280_humidity;BME280_pressure;Samples;Min_cycle;Max_cycle;Signal;HPM_P1;HPM_P2
2021/08/24 00:01:26;;;;;;;58.17;2.70;;;15.20;99.90;;;;;;5071999;28;20532;-71
2021/08/24 00:03:52;;;;;;;58.30;2.90;;;15.20;99.90;;;;;;5072067;28;20461;-71
2021/08/24 00:06:19;;;;;;;58.07;2.40;;;15.10;99.90;;;;;;5071977;28;20580;-71
2021/08/24 00:08:46;;;;;;;58.20;2.60;;;15.10;99.90;;;;;;5072269;28;20459;-71
2021/08/24 00:11:13;;;;;;;58.17;2.87;;;15.10;99.90;;;;;;5071766;28;20545;-71
2021/08/24 00:13:40;;;;;;;58.07;2.70;;;15.10;99.90;;;;;;5072200;28;20445;-71
2021/08/24 00:16:07;;;;;;;58.10;2.67;;;15.10;99.90;;;;;;5072049;28;20866;-71
2021/08/24 00:19:24;;;;;;;58.37;2.80;;;15.10;99.90;;;;;;5071890;28;20450;-71
2021/08/24 00:21:52;;;;;;;58.17;2.80;;;15.10;99.90;;;;;;5071868;28;20522;-70
2021/08/24 00:24:20;;;;;;;58.63;3.20;;;15.20;99.90;;;;;;5072069;28;20452;-71
2021/08/24 00:26:47;;;;;;;58.37;2.77;;;15.20;99.90;;;;;;5071863;28;20536;-71
2021/08/24 00:29:15;;;;;;;58.20;2.93;;;15.20;99.90;;;;;;5071547;28;20445;-71
2021/08/24 00:31:41;;;;;;;58.20;2.90;;;15.20;99.90;;;;;;5071974;28;20822;-71
2021/08/24 00:34:08;;;;;;;57.97;2.60;;;15.20;99.90;;;;;;5072063;28;20551;-71
2021/08/24 00:36:35;;;;;;;58.37;2.70;;;15.20;99.90;;;;;;5072015;28;20840;-71
2021/08/24 00:39:04;;;;;;;58.60;3.33;;;15.20;99.90;;;;;;5071766;28;20817;-71
2021/08/24 00:41:31;;;;;;;58.17;2.60;;;15.20;99.90;;;;;;5071584;28;20507;-71
2021/08/24 00:43:58;;;;;;;58.47;2.50;;;15.10;99.90;;;;;;5072194;28;20535;-71
2021/08/24 00:46:39;;;;;;;58.00;2.80;;;15.20;99.90;;;;;;5071785;28;20480;-71
2021/08/24 00:49:09;;;;;;;58.10;2.60;;;15.10;99.90;;;;;;5071684;28;20452;-70
2021/08/24 00:51:39;;;;;;;58.60;2.90;;;15.20;99.90;;;;;;5071689;28;20469;-71
2021/08/24 00:54:09;;;;;;;58.70;2.80;;;15.10;99.90;;;;;;5071623;28;20932;-71
2021/08/24 00:56:37;;;;;;;58.30;2.80;;;15.20;99.90;;;;;;5071841;28;20531;-71
2021/08/24 00:59:04;;;;;;;58.10;2.70;;;15.10;99.90;;;;;;5071754;28;20475;-70
2021/08/24 01:01:31;;;;;;;58.90;2.90;;;15.10;99.90;;;;;;5071574;28;20501;-71
2021/08/24 01:03:59;;;;;;;57.93;2.53;;;15.10;99.90;;;;;;5071763;28;20552;-70
2021/08/24 01:06:37;;;;;;;58.50;3.00;;;15.10;99.90;;;;;;5071672;28;20493;-71
2021/08/24 01:09:26;;;;;;;59.10;4.80;;;15.00;99.90;;;;;;5071319;28;20517;-71
2021/08/24 01:12:03;;;;;;;57.93;2.60;;;15.00;99.90;;;;;;5071420;28;21064;-70
2021/08/24 01:14:35;;;;;;;58.13;2.60;;;15.10;99.90;;;;;;5071534;28;20498;-71
2021/08/24 01:17:10;;;;;;;58.13;2.90;;;15.00;99.90;;;;;;5071298;28;20441;-71
2021/08/24 01:20:31;;;;;;;58.37;3.00;;;15.00;99.90;;;;;;5073066;28;20461;-70
2021/08/24 01:23:46;;;;;;;58.17;2.50;;;15.00;99.90;;;;;;5075327;28;20508;-70
2021/08/24 01:26:24;;;;;;;58.30;2.90;;;15.00;99.90;;;;;;5054632;28;20459;-71
2021/08/24 01:29:06;;;;;;;58.07;2.60;;;15.00;98.40;;;;;;5075172;28;20444;-71
2021/08/24 01:32:04;;;;;;;58.27;2.47;;;15.00;97.00;;;;;;5074976;28;20463;-70
2021/08/24 01:34:47;;;;;;;58.07;2.60;;;15.00;96.10;;;;;;5075165;28;20488;-71
2021/08/24 01:37:24;;;;;;;58.33;3.03;;;14.90;96.20;;;;;;5075071;28;20449;-71
2021/08/24 01:39:55;;;;;;;58.27;2.53;;;14.90;96.20;;;;;;5074715;28;20448;-70
2021/08/24 01:42:24;;;;;;;58.53;2.90;;;14.80;96.10;;;;;;5075232;28;20585;-71
2021/08/24 01:45:00;;;;;;;58.07;3.17;;;14.80;96.00;;;;;;5075013;28;20539;-71
2021/08/24 01:47:40;;;;;;;58.27;2.70;;;14.70;95.90;;;;;;5073277;28;20484;-71
2021/08/24 01:50:12;;;;;;;58.30;2.80;;;14.60;96.00;;;;;;5074758;28;20552;-71
2021/08/24 01:52:45;;;;;;;58.47;3.17;;;14.60;96.20;;;;;;5074921;28;20473;-71
2021/08/24 01:55:16;;;;;;;58.27;2.70;;;14.50;96.30;;;;;;5074825;28;20503;-70
2021/08/24 01:57:49;;;;;;;58.17;2.80;;;14.40;96.40;;;;;;5074706;28;20449;-70
2021/08/24 02:00:17;;;;;;;58.37;2.80;;;14.30;96.20;;;;;;5074660;28;20976;-70
2021/08/24 02:02:49;;;;;;;58.40;2.90;;;14.30;96.00;;;;;;5074802;28;20558;-70
2021/08/24 02:05:20;;;;;;;58.77;2.80;;;14.20;96.20;;;;;;5074678;28;20515;-70
2021/08/24 02:07:54;;;;;;;58.40;3.00;;;14.20;96.20;;;;;;5074281;28;21000;-70
2021/08/24 02:10:24;;;;;;;58.43;2.80;;;14.10;96.40;;;;;;5074266;28;20459;-71
2021/08/24 02:12:53;;;;;;;58.17;2.70;;;14.00;96.30;;;;;;5074191;28;21044;-70
2021/08/24 02:15:25;;;;;;;58.60;2.90;;;14.00;96.60;;;;;;5074577;28;20538;-70
2021/08/24 02:17:53;;;;;;;58.23;2.70;;;13.90;96.70;;;;;;5074198;28;20448;-70
2021/08/24 02:20:25;;;;;;;58.50;2.60;;;13.90;96.80;;;;;;5074243;28;20460;-70
2021/08/24 02:22:57;;;;;;;58.37;2.80;;;13.90;97.20;;;;;;5074460;28;20585;-71
2021/08/24 02:25:27;;;;;;;57.97;2.63;;;13.80;97.30;;;;;;5074397;28;20522;-71
2021/08/24 02:27:59;;;;;;;58.47;3.00;;;13.70;97.60;;;;;;5074345;28;20859;-71
2021/08/24 02:30:26;;;;;;;58.70;3.00;;;13.70;97.80;;;;;;5073189;28;20451;-71
2021/08/24 02:32:53;;;;;;;58.47;2.70;;;13.70;98.00;;;;;;5073794;28;20982;-71
2021/08/24 02:35:26;;;;;;;58.33;3.03;;;13.70;98.40;;;;;;5073970;28;20447;-71
2021/08/24 02:38:02;;;;;;;58.57;3.20;;;13.60;98.40;;;;;;5073926;28;20452;-71
2021/08/24 02:40:39;;;;;;;58.27;3.00;;;13.60;98.50;;;;;;5073928;28;20451;-71
2021/08/24 02:43:18;;;;;;;58.33;2.70;;;13.50;98.30;;;;;;5073742;28;20560;-71
2021/08/24 02:45:52;;;;;;;58.47;2.80;;;13.50;98.60;;;;;;5073881;28;20546;-71
2021/08/24 02:48:20;;;;;;;58.37;2.90;;;13.50;98.70;;;;;;5073645;28;20509;-71
2021/08/24 02:50:49;;;;;;;58.30;2.80;;;13.40;98.40;;;;;;5073737;28;20889;-71
2021/08/24 02:53:17;;;;;;;58.37;2.93;;;13.40;98.30;;;;;;5073651;28;20552;-71
2021/08/24 02:55:44;;;;;;;58.13;2.80;;;13.40;98.50;;;;;;5073840;28;20454;-71
2021/08/24 02:58:11;;;;;;;58.23;2.70;;;13.40;98.70;;;;;;5073488;28;20486;-71
2021/08/24 03:00:38;;;;;;;58.40;2.60;;;13.30;98.50;;;;;;5073387;28;20531;-71
2021/08/24 03:03:05;;;;;;;58.40;2.70;;;13.30;98.40;;;;;;5073436;28;20571;-71
2021/08/24 03:05:32;;;;;;;58.27;2.90;;;13.20;98.30;;;;;;5073571;28;20538;-71
2021/08/24 03:07:59;;;;;;;58.23;2.60;;;13.20;98.30;;;;;;5073328;28;20495;-71
2021/08/24 03:10:30;;;;;;;58.30;2.60;;;13.20;98.20;;;;;;5073139;28;20447;-71
2021/08/24 03:13:09;;;;;;;58.57;3.03;;;13.10;98.10;;;;;;5073181;28;20478;-71
2021/08/24 03:15:42;;;;;;;58.37;2.60;;;13.10;98.10;;;;;;5073449;28;20802;-70
2021/08/24 03:18:14;;;;;;;58.37;2.60;;;13.00;97.80;;;;;;5073355;28;20529;-71
2021/08/24 03:20:44;;;;;;;58.57;2.60;;;13.00;97.90;;;;;;5072932;28;20453;-71
2021/08/24 03:23:13;;;;;;;58.13;2.53;;;13.00;98.10;;;;;;5073235;28;20838;-71
2021/08/24 03:25:45;;;;;;;58.47;2.90;;;13.00;98.00;;;;;;5072825;28;20454;-70
2021/08/24 03:28:14;;;;;;;58.27;2.70;;;13.00;98.20;;;;;;5073431;28;20467;-70
2021/08/24 03:30:42;;;;;;;58.13;2.73;;;12.90;98.30;;;;;;5072753;28;20447;-70
2021/08/24 03:33:09;;;;;;;58.37;2.70;;;12.90;98.40;;;;;;5072983;28;20470;-71
2021/08/24 03:35:36;;;;;;;58.17;2.70;;;12.90;98.40;;;;;;5072712;28;20977;-70
2021/08/24 03:38:04;;;;;;;58.33;2.63;;;12.80;98.30;;;;;;5072638;28;20531;-71
2021/08/24 03:40:31;;;;;;;58.40;2.80;;;12.80;98.10;;;;;;5072439;28;20449;-70
2021/08/24 03:43:00;;;;;;;58.57;3.00;;;12.70;97.90;;;;;;5072628;28;21032;-71
2021/08/24 03:45:27;;;;;;;58.57;2.90;;;12.70;97.80;;;;;;5072522;28;20442;-70
2021/08/24 03:47:54;;;;;;;58.60;3.17;;;12.60;97.70;;;;;;5072264;28;20482;-71
2021/08/24 03:50:21;;;;;;;58.20;2.73;;;12.60;97.70;;;;;;5072341;28;21018;-70
2021/08/24 03:52:49;;;;;;;58.43;2.80;;;12.60;97.70;;;;;;5072309;28;20475;-71
2021/08/24 03:55:17;;;;;;;58.47;2.90;;;12.50;97.60;;;;;;5072490;28;20455;-70
2021/08/24 03:57:44;;;;;;;58.37;2.80;;;12.50;97.70;;;;;;5072571;28;20819;-71
2021/08/24 04:00:14;;;;;;;58.43;2.70;;;12.40;97.50;;;;;;5072219;28;20444;-70
2021/08/24 04:02:41;;;;;;;58.50;2.60;;;12.40;97.60;;;;;;5072414;28;20467;-71
2021/08/24 04:05:09;;;;;;;58.53;2.90;;;12.30;97.40;;;;;;5072350;28;21034;-71
2021/08/24 04:07:36;;;;;;;58.47;2.60;;;12.30;97.20;;;;;;5072013;28;21020;-71
2021/08/24 04:10:03;;;;;;;58.37;2.60;;;12.30;97.40;;;;;;5071928;28;20454;-71
2021/08/24 04:12:31;;;;;;;58.70;2.97;;;12.30;97.40;;;;;;5072202;28;20470;-70
2021/08/24 04:14:57;;;;;;;58.47;2.70;;;12.30;97.40;;;;;;5072181;28;20448;-71
2021/08/24 04:17:26;;;;;;;58.47;2.67;;;12.30;97.60;;;;;;5072006;28;20450;-71
2021/08/24 04:19:53;;;;;;;58.57;2.80;;;12.30;97.60;;;;;;5071958;28;20449;-70
2021/08/24 04:22:22;;;;;;;59.00;3.30;;;12.20;97.80;;;;;;5072118;28;20557;-71
2021/08/24 04:24:49;;;;;;;58.47;3.10;;;12.20;97.80;;;;;;5072059;28;20447;-70
2021/08/24 04:27:16;;;;;;;58.67;2.80;;;12.20;97.70;;;;;;5072198;28;20443;-70
2021/08/24 04:29:43;;;;;;;58.60;3.10;;;12.10;97.70;;;;;;5071798;28;20458;-71
2021/08/24 04:32:15;;;;;;;58.47;2.83;;;12.10;97.80;;;;;;5071983;28;20467;-70
2021/08/24 04:34:43;;;;;;;58.53;2.60;;;12.00;97.70;;;;;;5072204;28;20451;-70
2021/08/24 04:37:10;;;;;;;58.47;2.80;;;12.00;97.80;;;;;;5071979;28;20525;-71
2021/08/24 04:39:36;;;;;;;58.63;2.77;;;12.00;97.60;;;;;;5071709;28;20479;-70
2021/08/24 04:42:03;;;;;;;58.60;2.83;;;12.00;97.70;;;;;;5071770;28;20550;-70
2021/08/24 04:44:30;;;;;;;58.53;2.93;;;12.00;97.80;;;;;;5072054;28;20447;-70
2021/08/24 04:46:57;;;;;;;58.63;3.03;;;12.00;98.10;;;;;;5071807;28;20548;-70
2021/08/24 04:49:24;;;;;;;58.43;2.80;;;12.00;98.30;;;;;;5071714;28;20483;-70
2021/08/24 04:51:52;;;;;;;59.23;3.60;;;12.00;98.40;;;;;;5071829;28;20555;-70
2021/08/24 04:54:19;;;;;;;58.37;2.90;;;12.00;98.70;;;;;;5073023;28;20883;-71
2021/08/24 04:56:46;;;;;;;58.50;2.90;;;12.00;98.70;;;;;;5075772;28;20461;-70
2021/08/24 04:59:13;;;;;;;59.87;4.40;;;12.00;98.90;;;;;;5075578;28;20529;-70
2021/08/24 05:01:40;;;;;;;58.37;2.90;;;12.00;98.70;;;;;;5075830;28;20546;-70
2021/08/24 05:04:07;;;;;;;58.57;2.90;;;12.00;98.80;;;;;;5075811;28;20469;-70
2021/08/24 05:06:34;;;;;;;58.50;2.90;;;12.00;99.10;;;;;;5075502;28;20950;-70
2021/08/24 05:09:02;;;;;;;58.37;2.80;;;12.10;99.00;;;;;;5075527;28;20569;-70
2021/08/24 05:11:29;;;;;;;58.07;2.60;;;12.10;98.90;;;;;;5075434;28;20514;-70
2021/08/24 05:13:55;;;;;;;58.27;2.90;;;12.10;98.80;;;;;;5075477;28;20526;-71
2021/08/24 05:16:22;;;;;;;58.37;2.70;;;12.10;99.00;;;;;;5075641;28;20457;-71
2021/08/24 05:18:49;;;;;;;58.37;2.67;;;12.20;99.10;;;;;;5075558;28;20500;-71
2021/08/24 05:21:18;;;;;;;58.23;2.70;;;12.20;99.20;;;;;;5075265;28;20530;-71
2021/08/24 05:23:45;;;;;;;58.37;2.70;;;12.30;99.00;;;;;;5075327;28;20451;-71
2021/08/24 05:26:16;;;;;;;58.47;2.90;;;12.40;99.10;;;;;;5075154;28;20455;-71
2021/08/24 05:28:44;;;;;;;58.43;2.63;;;12.40;99.00;;;;;;5075454;28;20489;-71
2021/08/24 05:31:10;;;;;;;58.47;2.90;;;12.50;98.80;;;;;;5075108;28;20843;-71
2021/08/24 05:33:37;;;;;;;58.20;2.70;;;12.50;98.30;;;;;;5075222;28;20451;-71
2021/08/24 05:36:05;;;;;;;59.00;2.90;;;12.50;98.60;;;;;;5075093;28;20534;-71
2021/08/24 05:38:33;;;;;;;58.50;2.80;;;12.50;98.60;;;;;;5074895;28;20443;-71
2021/08/24 05:41:01;;;;;;;58.33;2.73;;;12.60;98.80;;;;;;5074926;28;20451;-71
2021/08/24 05:43:29;;;;;;;58.37;2.70;;;12.60;99.40;;;;;;5075070;28;20654;-71
2021/08/24 05:45:56;;;;;;;58.27;2.90;;;12.70;99.80;;;;;;5075163;28;20446;-71
2021/08/24 05:48:25;;;;;;;58.20;2.50;;;12.80;99.90;;;;;;5075144;28;20478;-71
2021/08/24 05:50:52;;;;;;;58.47;3.10;;;12.90;99.90;;;;;;5074815;28;20549;-72
2021/08/24 05:53:19;;;;;;;58.17;2.73;;;13.00;99.90;;;;;;5074632;28;20554;-71
2021/08/24 05:55:46;;;;;;;59.00;3.73;;;13.10;99.90;;;;;;5074581;28;20573;-71
2021/08/24 05:58:13;;;;;;;58.07;2.60;;;13.20;99.90;;;;;;5075049;28;20439;-71
2021/08/24 06:00:42;;;;;;;58.37;2.90;;;13.30;99.90;;;;;;5074583;28;20451;-71
2021/08/24 06:03:09;;;;;;;58.17;2.80;;;13.30;99.90;;;;;;5074414;28;20561;-71
2021/08/24 06:05:38;;;;;;;58.57;2.80;;;13.30;99.90;;;;;;5074362;28;20479;-71
2021/08/24 06:08:06;;;;;;;58.40;2.50;;;13.30;99.90;;;;;;5074505;28;20858;-71
2021/08/24 06:10:37;;;;;;;58.27;2.77;;;13.40;99.90;;;;;;5074384;28;20462;-71
2021/08/24 06:13:04;;;;;;;58.03;2.60;;;13.50;99.90;;;;;;5074627;28;20475;-71
2021/08/24 06:15:31;;;;;;;58.70;3.10;;;13.60;99.90;;;;;;5074464;28;20447;-71
2021/08/24 06:17:59;;;;;;;57.97;2.80;;;13.70;99.90;;;;;;5074249;28;20448;-71
2021/08/24 06:20:26;;;;;;;58.50;2.57;;;13.80;99.90;;;;;;5074392;28;20450;-71
2021/08/24 06:22:53;;;;;;;58.70;2.90;;;13.90;99.90;;;;;;5074099;28;20556;-71
2021/08/24 06:25:22;;;;;;;58.07;2.80;;;14.00;99.90;;;;;;5074477;28;20796;-71
2021/08/24 06:27:49;;;;;;;58.23;2.73;;;14.10;99.90;;;;;;5074185;28;20447;-71
2021/08/24 06:30:16;;;;;;;57.97;2.60;;;14.20;98.90;;;;;;5074101;28;20546;-71
2021/08/24 06:32:46;;;;;;;58.57;3.07;;;14.20;97.60;;;;;;5074174;28;20475;-71
2021/08/24 06:35:16;;;;;;;58.60;3.00;;;14.30;97.60;;;;;;5073856;28;20448;-71
2021/08/24 06:37:42;;;;;;;58.20;2.73;;;14.40;97.60;;;;;;5074373;28;20449;-71
2021/08/24 06:40:11;;;;;;;58.20;3.20;;;14.40;98.00;;;;;;5073968;28;20530;-71
2021/08/24 06:42:41;;;;;;;58.30;2.83;;;14.40;98.80;;;;;;5073908;28;20555;-71
2021/08/24 06:45:12;;;;;;;58.47;2.97;;;14.40;99.10;;;;;;5074004;28;20498;-71
2021/08/24 06:47:39;;;;;;;57.97;2.50;;;14.50;99.20;;;;;;5073935;28;20433;-71
2021/08/24 06:50:06;;;;;;;58.40;3.47;;;14.60;99.50;;;;;;5073438;28;20485;-71
2021/08/24 06:52:34;;;;;;;58.13;2.63;;;14.60;99.90;;;;;;5073367;28;20467;-71
2021/08/24 06:55:01;;;;;;;58.30;2.70;;;14.80;99.90;;;;;;5073589;28;20480;-71
2021/08/24 06:57:28;;;;;;;58.60;3.40;;;14.80;99.90;;;;;;5073595;28;20539;-71
2021/08/24 06:59:55;;;;;;;58.47;3.20;;;14.90;99.90;;;;;;5073564;28;20451;-72
2021/08/24 07:02:22;;;;;;;58.50;3.10;;;14.90;99.90;;;;;;5073633;28;20567;-72
2021/08/24 07:04:49;;;;;;;58.50;3.33;;;14.90;93.70;;;;;;5073339;28;20544;-72
2021/08/24 07:07:16;;;;;;;58.30;3.10;;;14.90;90.80;;;;;;5073486;28;20871;-69
2021/08/24 07:09:44;;;;;;;58.70;2.90;;;14.90;80.00;;;;;;5073177;28;20489;-69
2021/08/24 07:12:11;;;;;;;58.33;3.00;;;14.90;80.20;;;;;;5073359;28;20461;-70
2021/08/24 07:14:38;;;;;;;58.30;2.67;;;14.90;74.50;;;;;;5073179;28;20449;-70
2021/08/24 07:17:05;;;;;;;58.50;2.60;;;14.90;68.00;;;;;;5072733;28;20946;-71
2021/08/24 07:19:32;;;;;;;58.30;2.43;;;14.90;67.10;;;;;;5073366;28;20536;-70
2021/08/24 07:21:58;;;;;;;58.50;2.60;;;14.90;60.00;;;;;;5073017;28;21048;-70
2021/08/24 07:24:25;;;;;;;58.33;2.90;;;15.00;57.50;;;;;;5073243;28;20466;-70
2021/08/24 07:26:54;;;;;;;58.23;2.80;;;15.00;54.00;;;;;;5073116;28;20942;-70
2021/08/24 07:29:20;;;;;;;58.10;2.80;;;15.00;48.00;;;;;;5072707;28;20484;-70
2021/08/24 07:31:47;;;;;;;58.80;3.90;;;15.00;45.80;;;;;;5072758;28;20552;-71
2021/08/24 07:34:14;;;;;;;57.87;2.60;;;15.00;41.40;;;;;;5072814;28;20564;-71
2021/08/24 07:36:41;;;;;;;58.17;2.70;;;15.10;33.80;;;;;;5073122;28;20819;-70
2021/08/24 07:39:08;;;;;;;60.80;3.47;;;15.10;30.00;;;;;;5072565;28;20900;-70
2021/08/24 07:41:35;;;;;;;58.33;3.13;;;15.30;32.60;;;;;;5072748;28;20474;-70
2021/08/24 07:44:04;;;;;;;58.40;2.80;;;15.40;36.20;;;;;;5072624;28;20447;-71
2021/08/24 07:46:31;;;;;;;58.17;3.00;;;15.60;30.40;;;;;;5072552;28;20548;-71
2021/08/24 07:48:58;;;;;;;58.57;3.30;;;15.70;1.00;;;;;;5072541;28;20491;-71
2021/08/24 07:51:25;;;;;;;58.27;2.40;;;15.90;1.00;;;;;;5072428;28;20549;-71
2021/08/24 07:53:52;;;;;;;58.03;2.50;;;16.00;1.00;;;;;;5072616;28;20448;-70
2021/08/24 07:56:21;;;;;;;58.20;2.90;;;16.10;1.00;;;;;;5072405;28;20545;-70
2021/08/24 07:58:48;;;;;;;58.47;3.20;;;16.30;1.00;;;;;;5072292;28;20450;-70
2021/08/24 08:01:17;;;;;;;57.63;2.60;;;16.40;1.00;;;;;;5072324;28;20456;-70
2021/08/24 08:03:43;;;;;;;57.87;2.87;;;16.40;1.00;;;;;;5072317;28;20555;-70
2021/08/24 08:06:10;;;;;;;58.00;2.37;;;16.60;1.00;;;;;;5072402;28;20540;-70
2021/08/24 08:08:37;;;;;;;58.17;2.97;;;16.70;1.00;;;;;;5072214;28;20521;-70
2021/08/24 08:11:04;;;;;;;58.00;2.37;;;16.80;1.00;;;;;;5072489;28;21021;-70
2021/08/24 08:13:31;;;;;;;58.37;3.17;;;16.90;1.00;;;;;;5072344;28;20470;-71
2021/08/24 08:15:58;;;;;;;58.17;2.97;;;16.90;1.00;;;;;;5072260;28;20447;-71
2021/08/24 08:18:26;;;;;;;58.10;2.50;;;16.90;1.00;;;;;;5072165;28;20450;-71
2021/08/24 08:20:53;;;;;;;58.50;2.87;;;16.90;1.00;;;;;;5072120;28;20533;-71
2021/08/24 08:23:21;;;;;;;58.30;2.70;;;16.90;1.00;;;;;;5072010;28;20467;-71
2021/08/24 08:25:48;;;;;;;58.13;2.30;;;17.10;1.00;;;;;;5072018;28;20970;-71
2021/08/24 08:28:15;;;;;;;58.10;2.60;;;17.20;1.00;;;;;;5072147;28;20905;-71
2021/08/24 08:30:43;;;;;;;57.87;2.40;;;17.20;1.00;;;;;;5071984;28;20471;-71
2021/08/24 08:33:10;;;;;;;58.43;3.10;;;17.30;1.00;;;;;;5072072;28;20485;-71
2021/08/24 08:35:39;;;;;;;60.93;3.53;;;17.40;1.00;;;;;;5072141;28;20458;-71
2021/08/24 08:38:06;;;;;;;59.00;3.33;;;17.40;1.00;;;;;;5072174;28;20822;-71
2021/08/24 08:40:40;;;;;;;63.87;9.83;;;17.40;1.00;;;;;;5071867;28;20534;-71
2021/08/24 08:43:19;;;;;;;60.80;6.00;;;17.40;1.00;;;;;;5072222;28;20497;-71
2021/08/24 08:45:49;;;;;;;58.30;3.40;;;17.60;1.00;;;;;;5071920;28;20494;-71
2021/08/24 08:48:30;;;;;;;58.03;2.70;;;17.60;1.00;;;;;;5072261;28;20517;-71
2021/08/24 08:51:07;;;;;;;58.03;2.60;;;17.60;1.00;;;;;;5071838;28;20420;-71
2021/08/24 08:53:41;;;;;;;58.37;2.80;;;17.50;1.00;;;;;;5071822;28;20931;-71
2021/08/24 08:56:15;;;;;;;58.07;2.60;;;17.40;1.00;;;;;;5071874;28;20451;-71
2021/08/24 08:58:51;;;;;;;58.17;2.50;;;17.40;1.00;;;;;;5072065;28;20463;-71
2021/08/24 09:01:25;;;;;;;58.03;2.60;;;17.40;1.00;;;;;;5071833;28;20470;-71
2021/08/24 09:03:55;;;;;;;58.33;3.27;;;17.40;1.00;;;;;;5071548;28;20461;-71
2021/08/24 09:06:26;;;;;;;57.70;2.90;;;17.50;1.00;;;;;;5071592;28;20916;-71
2021/08/24 09:08:54;;;;;;;58.17;2.80;;;17.60;1.00;;;;;;5071701;28;20565;-71
2021/08/24 09:11:26;;;;;;;58.13;2.90;;;17.80;1.00;;;;;;5071452;28;20538;-71
2021/08/24 09:13:58;;;;;;;58.67;3.53;;;17.90;1.00;;;;;;5071918;28;20450;-71
2021/08/24 09:16:29;;;;;;;58.23;2.40;;;18.10;1.00;;;;;;5071772;28;20456;-71
2021/08/24 09:18:59;;;;;;;63.83;6.80;;;18.30;1.00;;;;;;5071646;28;20514;-71
2021/08/24 09:21:30;;;;;;;61.57;5.53;;;18.40;1.00;;;;;;5071426;28;20451;-71
2021/08/24 09:23:59;;;;;;;57.87;2.50;;;18.30;1.00;;;;;;5071450;28;20455;-71
2021/08/24 09:26:48;;;;;;;58.47;3.80;;;18.20;1.00;;;;;;5071597;28;20445;-71
2021/08/24 09:29:16;;;;;;;61.93;4.17;;;18.00;1.00;;;;;;5071349;28;20968;-71
2021/08/24 09:31:45;;;;;;;60.57;6.43;;;17.90;1.00;;;;;;5071370;28;20463;-71
2021/08/24 09:34:14;;;;;;;57.87;2.50;;;17.90;1.00;;;;;;5071650;28;20502;-71
2021/08/24 09:36:42;;;;;;;64.13;7.07;;;17.70;1.00;;;;;;5071314;28;20451;-71
2021/08/24 09:39:09;;;;;;;60.10;3.27;;;17.60;1.00;;;;;;5071338;28;20446;-71
2021/08/24 09:41:38;;;;;;;58.20;2.97;;;17.50;1.00;;;;;;5074733;28;20464;-71
2021/08/24 09:44:22;;;;;;;60.70;4.03;;;17.30;1.00;;;;;;5075304;28;20522;-71
2021/08/24 09:46:50;;;;;;;58.27;2.50;;;17.20;1.00;;;;;;5075212;28;20526;-71
2021/08/24 09:49:34;;;;;;;74.90;16.23;;;17.30;1.00;;;;;;5075333;28;20486;-71
2021/08/24 09:52:06;;;;;;;58.67;3.30;;;17.20;1.00;;;;;;5074875;28;20960;-71
2021/08/24 09:54:37;;;;;;;58.30;2.87;;;17.20;1.00;;;;;;5075533;28;20538;-71
2021/08/24 09:57:07;;;;;;;58.30;2.70;;;17.20;1.00;;;;;;5074897;28;20920;-71
2021/08/24 09:59:38;;;;;;;58.27;2.37;;;17.30;1.00;;;;;;5074699;28;20475;-71
2021/08/24 10:02:07;;;;;;;58.10;2.70;;;17.40;1.00;;;;;;5074761;28;20467;-71
2021/08/24 10:04:50;;;;;;;57.97;2.80;;;17.40;1.00;;;;;;5074678;28;20499;-71
2021/08/24 10:07:32;;;;;;;58.17;2.40;;;17.50;1.00;;;;;;5074953;28;20435;-71
2021/08/24 10:10:00;;;;;;;62.97;3.03;;;17.60;1.00;;;;;;5074332;28;20850;-71
2021/08/24 10:12:29;;;;;;;58.20;2.60;;;17.70;1.00;;;;;;5074929;28;20929;-71
2021/08/24 10:14:56;;;;;;;58.93;3.13;;;17.80;1.00;;;;;;5074612;28;20482;-71
2021/08/24 10:17:30;;;;;;;58.00;2.80;;;18.00;1.00;;;;;;5074432;28;20447;-71
2021/08/24 10:19:58;;;;;;;58.00;2.80;;;18.10;1.00;;;;;;5074352;28;20441;-71
2021/08/24 10:22:30;;;;;;;58.40;2.80;;;18.30;1.00;;;;;;5074296;28;20565;-71
2021/08/24 10:25:01;;;;;;;57.57;2.27;;;18.30;1.00;;;;;;5074453;28;20451;-71
2021/08/24 10:27:32;;;;;;;58.10;2.30;;;18.30;1.00;;;;;;5074328;28;20505;-71
2021/08/24 10:30:02;;;;;;;58.27;2.80;;;18.50;1.00;;;;;;5074231;28;20512;-71
2021/08/24 10:32:33;;;;;;;57.67;2.40;;;18.80;1.00;;;;;;5074085;28;20585;-71
2021/08/24 10:35:09;;;;;;;58.03;2.40;;;19.00;1.00;;;;;;5074050;28;20452;-71
2021/08/24 10:37:47;;;;;;;57.97;2.40;;;19.00;1.00;;;;;;5074210;28;20827;-71
2021/08/24 10:40:19;;;;;;;57.87;2.40;;;18.90;1.00;;;;;;5074431;28;20449;-71
2021/08/24 10:43:05;;;;;;;58.07;2.40;;;18.70;1.00;;;;;;5073922;28;21010;-71
2021/08/24 10:45:34;;;;;;;59.07;3.17;;;18.50;1.00;;;;;;5074038;28;20465;-71
2021/08/24 10:48:04;;;;;;;58.07;2.43;;;18.30;1.00;;;;;;5073860;28;20956;-71
2021/08/24 10:50:40;;;;;;;58.17;2.87;;;18.30;1.00;;;;;;5073790;28;20676;-71
2021/08/24 10:53:22;;;;;;;57.87;2.53;;;18.20;1.00;;;;;;5072663;28;20481;-71
2021/08/24 10:55:55;;;;;;;62.30;6.33;;;18.30;1.00;;;;;;5073787;28;20538;-71
2021/08/24 10:58:27;;;;;;;58.77;3.70;;;18.30;1.00;;;;;;5073649;28;20822;-71
2021/08/24 11:01:00;;;;;;;57.67;2.60;;;18.30;1.00;;;;;;5073538;28;20516;-71
2021/08/24 11:03:48;;;;;;;58.37;2.90;;;18.40;1.00;;;;;;5073512;28;20487;-72
2021/08/24 11:06:22;;;;;;;58.27;2.80;;;18.50;1.00;;;;;;5074022;28;20508;-71
2021/08/24 11:09:00;;;;;;;57.90;3.07;;;18.50;1.00;;;;;;5073608;28;20447;-71
2021/08/24 11:11:40;;;;;;;58.87;3.50;;;18.60;1.00;;;;;;5073257;28;20840;-71
2021/08/24 11:14:19;;;;;;;58.63;3.37;;;18.50;1.00;;;;;;5073423;28;20475;-71
2021/08/24 11:16:54;;;;;;;57.63;2.73;;;18.40;1.00;;;;;;5073756;28;20447;-71
2021/08/24 11:19:33;;;;;;;58.07;3.00;;;18.40;1.00;;;;;;5073371;28;20448;-71
2021/08/24 11:22:07;;;;;;;58.10;2.60;;;18.50;1.00;;;;;;5073151;28;20459;-71
2021/08/24 11:24:48;;;;;;;58.87;2.70;;;18.60;1.00;;;;;;5073568;28;20463;-72
2021/08/24 11:27:24;;;;;;;57.87;2.50;;;18.70;1.00;;;;;;5073345;28;20796;-71
2021/08/24 11:29:56;;;;;;;57.80;2.60;;;18.70;1.00;;;;;;5072917;28;20591;-71
2021/08/24 11:32:26;;;;;;;57.90;2.70;;;18.60;1.00;;;;;;5073316;28;20885;-71
2021/08/24 11:34:57;;;;;;;58.13;2.77;;;18.60;1.00;;;;;;5073134;28;20454;-71
2021/08/24 11:37:28;;;;;;;58.07;2.47;;;18.50;1.00;;;;;;5072689;28;20459;-71
2021/08/24 11:40:01;;;;;;;58.17;2.70;;;18.50;1.00;;;;;;5072783;28;20465;-71
2021/08/24 11:42:33;;;;;;;58.87;2.60;;;18.40;1.00;;;;;;5072619;28;20471;-71
2021/08/24 11:45:01;;;;;;;57.73;2.50;;;18.60;1.00;;;;;;5072716;28;20437;-71
2021/08/24 11:47:35;;;;;;;57.90;2.60;;;19.00;1.00;;;;;;5072708;28;20453;-71
2021/08/24 11:50:07;;;;;;;57.70;2.40;;;19.20;1.00;;;;;;5072365;28;20479;-71
2021/08/24 11:52:41;;;;;;;57.93;2.40;;;19.30;1.00;;;;;;5072631;28;21074;-71
2021/08/24 11:55:18;;;;;;;58.17;2.87;;;19.40;1.00;;;;;;5072631;28;20937;-71
2021/08/24 11:57:51;;;;;;;57.93;2.57;;;19.60;1.00;;;;;;5072433;28;20959;-72
2021/08/24 12:00:18;;;;;;;58.60;2.70;;;19.70;1.00;;;;;;5072209;28;20445;-71
2021/08/24 12:02:50;;;;;;;58.00;2.57;;;19.90;1.00;;;;;;5072285;28;20500;-71
2021/08/24 12:05:20;;;;;;;57.87;2.50;;;20.00;1.00;;;;;;5073109;28;20438;-71
2021/08/24 12:07:56;;;;;;;58.37;2.97;;;20.20;1.00;;;;;;5072420;28;20448;-71
2021/08/24 12:10:32;;;;;;;58.33;2.93;;;20.20;1.00;;;;;;5072078;28;20473;-72
2021/08/24 12:13:01;;;;;;;58.60;2.67;;;20.30;1.00;;;;;;5072815;28;20501;-72
2021/08/24 12:15:36;;;;;;;58.50;2.90;;;20.40;1.00;;;;;;5072559;28;20867;-72
2021/08/24 12:18:09;;;;;;;58.07;2.60;;;20.60;1.00;;;;;;5072623;28;20437;-72
2021/08/24 12:20:39;;;;;;;57.40;2.60;;;20.60;1.00;;;;;;5072101;28;20536;-71
2021/08/24 12:23:10;;;;;;;57.87;2.30;;;20.70;1.00;;;;;;5072089;28;20471;-71
2021/08/24 12:25:41;;;;;;;57.83;2.30;;;20.80;1.00;;;;;;5072143;28;20989;-71
2021/08/24 12:28:38;;;;;;;57.77;2.60;;;20.80;1.00;;;;;;5072172;28;20454;-71
2021/08/24 12:31:21;;;;;;;58.03;2.30;;;20.80;1.00;;;;;;5065721;28;20483;-71
2021/08/24 12:33:48;;;;;;;58.07;2.63;;;20.70;1.00;;;;;;5071974;28;20530;-71
2021/08/24 12:36:53;;;;;;;58.30;2.80;;;20.40;1.00;;;;;;5072029;28;20454;-71
2021/08/24 12:39:39;;;;;;;58.40;3.20;;;20.20;1.00;;;;;;5071811;28;20453;-71
2021/08/24 12:42:21;;;;;;;58.00;2.50;;;19.80;1.00;;;;;;5071797;28;20554;-71
2021/08/24 12:44:50;;;;;;;57.90;2.60;;;19.60;1.00;;;;;;5072371;28;20799;-71
2021/08/24 12:47:43;;;;;;;57.90;2.90;;;19.40;1.00;;;;;;5072064;28;20813;-71
2021/08/24 12:50:49;;;;;;;57.57;2.40;;;19.50;1.00;;;;;;5071582;28;20476;-71
2021/08/24 12:53:44;;;;;;;58.13;2.30;;;19.60;1.00;;;;;;5066796;28;20524;-71
2021/08/24 12:56:28;;;;;;;58.97;2.83;;;19.80;1.00;;;;;;5072049;28;20434;-71
2021/08/24 12:58:58;;;;;;;57.30;2.50;;;20.20;1.00;;;;;;5071524;28;20457;-71
2021/08/24 13:01:27;;;;;;;57.00;2.40;;;20.50;1.00;;;;;;5071852;28;20471;-71